Emily Anne Mcallister — WDB3028 — position and weather

sailwx.info

Track history (hours):
 
Tides and Currents Weather Stations Pressure Air Temp Water Temp Dewpoint Dewpoint Depression Visibility Wind Speed Wind Dir Waves Ship Positions

Emily Anne Mcallister

Owner: MCALLISTER TOWING & TRANSPORTATION INC, NEW YORK, NY. More information available from US FCC via Universal Licensing System and Coast Guard Vessel Documentation Center.

Last reported at 2018-Jan-22 17:59 UTC. Time now 2018-Jan-22 18:03 UTC.
Position N 36°51' W 076°19'.

Length 30 m; draft 5 m.

Type: Pilot. MMSI: 366882560.

Date/timePositionNaut miles runAvg speedWind from/ knotsBaromVisibWave heightAir tempDewpointWater temp
2018-Jan-22 17:59N 36°51' W 076°19'0 0.3
2018-Jan-22 17:30N 36°51' W 076°19'2 3.5
2018-Jan-22 17:00N 36°53' W 076°20'3 4.8
2018-Jan-22 16:24N 36°56' W 076°20'0 0.7
2018-Jan-22 15:59N 36°56' W 076°20'0 0.2
2018-Jan-22 15:09N 36°56' W 076°20'0 0.0
2018-Jan-22 15:00N 36°56' W 076°20'0 0.0
2018-Jan-22 14:30N 36°56' W 076°20'0 0.0
2018-Jan-22 14:00N 36°56' W 076°20'0 0.0
2018-Jan-22 13:01N 36°56' W 076°20'0 0.0
2018-Jan-22 12:55N 36°56' W 076°20'0 0.0
2018-Jan-22 12:29N 36°56' W 076°20'0 0.0
2018-Jan-22 11:59N 36°56' W 076°20'0 1.0
2018-Jan-22 11:30N 36°55' W 076°20'0 0.8
2018-Jan-22 11:00N 36°56' W 076°20'0 0.2
2018-Jan-22 10:05N 36°56' W 076°20'0 0.0
2018-Jan-21 23:39N 36°56' W 076°20'0 2.5
2018-Jan-21 23:29N 36°56' W 076°20'0 0.9
2018-Jan-21 22:59N 36°56' W 076°20'0 0.0
2018-Jan-21 22:28N 36°56' W 076°20'0 0.0
2018-Jan-21 22:00N 36°56' W 076°20'0 0.0
2018-Jan-21 14:42N 36°56' W 076°20'0 0.0
2018-Jan-20 04:38N 36°55' W 076°20'0 0.2
2018-Jan-20 04:25N 36°55' W 076°20'0 0.2
2018-Jan-20 04:00N 36°55' W 076°20'1 0.3
2018-Jan-20 02:33N 36°55' W 076°20'1 4.9
2018-Jan-20 02:25N 36°55' W 076°20'0 0.1
2018-Jan-20 02:00N 36°55' W 076°20'2 3.5
2018-Jan-20 01:25N 36°57' W 076°20'3 0.4
2018-Jan-19 17:01N 36°53' W 076°20'1 8.4
2018-Jan-19 16:58N 36°53' W 076°20'3 7.4
2018-Jan-19 16:31N 36°50' W 076°18'3 5.7
2018-Jan-19 16:01N 36°47' W 076°18'0 0.3
2018-Jan-19 15:30N 36°47' W 076°18'0 0.0
2018-Jan-19 15:01N 36°47' W 076°18'0 0.0
2018-Jan-19 14:30N 36°47' W 076°18'0 0.0
2018-Jan-19 14:01N 36°47' W 076°18'0 0.9
2018-Jan-19 13:30N 36°47' W 076°18'0 0.0
2018-Jan-19 13:00N 36°47' W 076°18'0 0.0
2018-Jan-19 12:30N 36°47' W 076°18'0 0.0
2018-Jan-19 12:00N 36°47' W 076°18'0 0.0
2018-Jan-19 11:30N 36°47' W 076°18'1 2.8
2018-Jan-19 11:01N 36°48' W 076°18'0 0.4
2018-Jan-19 10:30N 36°48' W 076°18'0 0.1
2018-Jan-19 10:01N 36°48' W 076°18'1 2.6
2018-Jan-19 09:30N 36°49' W 076°17'1 1.9
2018-Jan-19 09:00N 36°50' W 076°17'0 0.0
2018-Jan-19 08:30N 36°50' W 076°17'0 0.0
2018-Jan-19 08:01N 36°50' W 076°17'0 0.0
2018-Jan-19 07:30N 36°50' W 076°17'0 0.0
2018-Jan-19 07:00N 36°50' W 076°17'0 0.0
2018-Jan-19 06:30N 36°50' W 076°17'0 0.0
2018-Jan-19 06:00N 36°50' W 076°17'0 0.0
2018-Jan-19 05:30N 36°50' W 076°17'0 0.0
2018-Jan-19 05:01N 36°50' W 076°17'0 0.0
2018-Jan-19 04:30N 36°50' W 076°17'0 0.0
2018-Jan-19 04:00N 36°50' W 076°17'0 0.0
2018-Jan-19 03:30N 36°50' W 076°17'0 0.0
2018-Jan-19 03:00N 36°50' W 076°17'0 0.0
2018-Jan-19 02:31N 36°50' W 076°17'0 0.0
2018-Jan-19 02:00N 36°50' W 076°17'0 0.0
2018-Jan-19 01:30N 36°50' W 076°17'0 0.0
2018-Jan-19 01:00N 36°50' W 076°17'0 0.0
2018-Jan-19 00:30N 36°50' W 076°17'0 0.0
2018-Jan-19 00:00N 36°50' W 076°17'0 0.0
2018-Jan-18 23:31N 36°50' W 076°17'0 0.0
2018-Jan-18 23:00N 36°50' W 076°17'0 0.0
2018-Jan-18 22:30N 36°50' W 076°17'0 0.0
2018-Jan-18 22:01N 36°50' W 076°17'2 3.9
2018-Jan-18 21:31N 36°51' W 076°19'1 2.0
2018-Jan-18 20:48N 36°53' W 076°20'0 0.5
2018-Jan-18 20:31N 36°53' W 076°20'0 0.5
2018-Jan-18 20:00N 36°53' W 076°20'3 0.5
2018-Jan-18 14:03N 36°56' W 076°20'0 0.0
2018-Jan-18 13:53N 36°56' W 076°20'0 0.0
2018-Jan-18 12:52N 36°56' W 076°20'0 0.0
2018-Jan-18 12:26N 36°56' W 076°20'0 0.0
2018-Jan-18 11:52N 36°56' W 076°20'0 0.4
2018-Jan-18 11:30N 36°56' W 076°20'0 0.7
2018-Jan-18 11:00N 36°56' W 076°20'0 0.3
2018-Jan-18 10:25N 36°56' W 076°20'  
Track history (hours):
 
Tides and Currents Weather Stations Pressure Air Temp Water Temp Dewpoint Dewpoint Depression Visibility Wind Speed Wind Dir Waves Ship Positions

Emily Anne Mcallister

Owner: MCALLISTER TOWING & TRANSPORTATION INC, NEW YORK, NY. More information available from US FCC via Universal Licensing System and Coast Guard Vessel Documentation Center.

Last reported at 2018-Jan-22 17:59 UTC. Time now 2018-Jan-22 18:03 UTC.
Position N 36°51' W 076°19'.

Length 30 m; draft 5 m.

Type: Pilot. MMSI: 366882560.

Date/timePositionNaut miles runAvg speedWind from/ knotsBaromVisibWave heightAir tempDewpointWater temp
2018-Jan-22 17:59N 36°51' W 076°19'0 0.3
2018-Jan-22 17:30N 36°51' W 076°19'2 3.5
2018-Jan-22 17:00N 36°53' W 076°20'3 4.8
2018-Jan-22 16:24N 36°56' W 076°20'0 0.7
2018-Jan-22 15:59N 36°56' W 076°20'0 0.2
2018-Jan-22 15:09N 36°56' W 076°20'0 0.0
2018-Jan-22 15:00N 36°56' W 076°20'0 0.0
2018-Jan-22 14:30N 36°56' W 076°20'0 0.0
2018-Jan-22 14:00N 36°56' W 076°20'0 0.0
2018-Jan-22 13:01N 36°56' W 076°20'0 0.0
2018-Jan-22 12:55N 36°56' W 076°20'0 0.0
2018-Jan-22 12:29N 36°56' W 076°20'0 0.0
2018-Jan-22 11:59N 36°56' W 076°20'0 1.0
2018-Jan-22 11:30N 36°55' W 076°20'0 0.8
2018-Jan-22 11:00N 36°56' W 076°20'0 0.2
2018-Jan-22 10:05N 36°56' W 076°20'0 0.0
2018-Jan-21 23:39N 36°56' W 076°20'0 2.5
2018-Jan-21 23:29N 36°56' W 076°20'0 0.9
2018-Jan-21 22:59N 36°56' W 076°20'0 0.0
2018-Jan-21 22:28N 36°56' W 076°20'0 0.0
2018-Jan-21 22:00N 36°56' W 076°20'0 0.0
2018-Jan-21 14:42N 36°56' W 076°20'0 0.0
2018-Jan-20 04:38N 36°55' W 076°20'0 0.2
2018-Jan-20 04:25N 36°55' W 076°20'0 0.2
2018-Jan-20 04:00N 36°55' W 076°20'1 0.3
2018-Jan-20 02:33N 36°55' W 076°20'1 4.9
2018-Jan-20 02:25N 36°55' W 076°20'0 0.1
2018-Jan-20 02:00N 36°55' W 076°20'2 3.5
2018-Jan-20 01:25N 36°57' W 076°20'3 0.4
2018-Jan-19 17:01N 36°53' W 076°20'1 8.4
2018-Jan-19 16:58N 36°53' W 076°20'3 7.4
2018-Jan-19 16:31N 36°50' W 076°18'3 5.7
2018-Jan-19 16:01N 36°47' W 076°18'0 0.3
2018-Jan-19 15:30N 36°47' W 076°18'0 0.0
2018-Jan-19 15:01N 36°47' W 076°18'0 0.0
2018-Jan-19 14:30N 36°47' W 076°18'0 0.0
2018-Jan-19 14:01N 36°47' W 076°18'0 0.9
2018-Jan-19 13:30N 36°47' W 076°18'0 0.0
2018-Jan-19 13:00N 36°47' W 076°18'0 0.0
2018-Jan-19 12:30N 36°47' W 076°18'0 0.0
2018-Jan-19 12:00N 36°47' W 076°18'0 0.0
2018-Jan-19 11:30N 36°47' W 076°18'1 2.8
2018-Jan-19 11:01N 36°48' W 076°18'0 0.4
2018-Jan-19 10:30N 36°48' W 076°18'0 0.1
2018-Jan-19 10:01N 36°48' W 076°18'1 2.6
2018-Jan-19 09:30N 36°49' W 076°17'1 1.9
2018-Jan-19 09:00N 36°50' W 076°17'0 0.0
2018-Jan-19 08:30N 36°50' W 076°17'0 0.0
2018-Jan-19 08:01N 36°50' W 076°17'0 0.0
2018-Jan-19 07:30N 36°50' W 076°17'0 0.0
2018-Jan-19 07:00N 36°50' W 076°17'0 0.0
2018-Jan-19 06:30N 36°50' W 076°17'0 0.0
2018-Jan-19 06:00N 36°50' W 076°17'0 0.0
2018-Jan-19 05:30N 36°50' W 076°17'0 0.0
2018-Jan-19 05:01N 36°50' W 076°17'0 0.0
2018-Jan-19 04:30N 36°50' W 076°17'0 0.0
2018-Jan-19 04:00N 36°50' W 076°17'0 0.0
2018-Jan-19 03:30N 36°50' W 076°17'0 0.0
2018-Jan-19 03:00N 36°50' W 076°17'0 0.0
2018-Jan-19 02:31N 36°50' W 076°17'0 0.0
2018-Jan-19 02:00N 36°50' W 076°17'0 0.0
2018-Jan-19 01:30N 36°50' W 076°17'0 0.0
2018-Jan-19 01:00N 36°50' W 076°17'0 0.0
2018-Jan-19 00:30N 36°50' W 076°17'0 0.0
2018-Jan-19 00:00N 36°50' W 076°17'0 0.0
2018-Jan-18 23:31N 36°50' W 076°17'0 0.0
2018-Jan-18 23:00N 36°50' W 076°17'0 0.0
2018-Jan-18 22:30N 36°50' W 076°17'0 0.0
2018-Jan-18 22:01N 36°50' W 076°17'2 3.9
2018-Jan-18 21:31N 36°51' W 076°19'1 2.0
2018-Jan-18 20:48N 36°53' W 076°20'0 0.5
2018-Jan-18 20:31N 36°53' W 076°20'0 0.5
2018-Jan-18 20:00N 36°53' W 076°20'3 0.5
2018-Jan-18 14:03N 36°56' W 076°20'0 0.0
2018-Jan-18 13:53N 36°56' W 076°20'0 0.0
2018-Jan-18 12:52N 36°56' W 076°20'0 0.0
2018-Jan-18 12:26N 36°56' W 076°20'0 0.0
2018-Jan-18 11:52N 36°56' W 076°20'0 0.4
2018-Jan-18 11:30N 36°56' W 076°20'0 0.7
2018-Jan-18 11:00N 36°56' W 076°20'0 0.3
2018-Jan-18 10:25N 36°56' W 076°20'  

Dump ship's entire track history